Wetterdaten: Woche 06.12.10 - 12.12.10 (KW49)
Datum Zeit Temp. Innen Temp. Aussen UV X Diff Temp. Feuchte Inne Feuchte Auss Sonnenschein Luftdruck Regen ab 0,1 Wind Sonnenschein T Regendauer Windben
06.12.2010 00:00 9,9 C 1,2 C 0,0 UV-I 0,0 C 53 % 94 % 0 % 1003,7 hPa 0,0 l/m 0,4 km/h (0 Bft) 0,00 h 0,00 h 1,0 km/h (0 Bft)
06.12.2010 01:00 10,0 C 1,2 C 0,0 UV-I 0,0 C 53 % 94 % 0 % 1003,4 hPa 0,0 l/m 0,1 km/h (0 Bft) 0,00 h 0,00 h 0,4 km/h (0 Bft)
06.12.2010 02:00 10,0 C 1,1 C 0,0 UV-I 0,0 C 52 % 93 % 0 % 1003,2 hPa 0,0 l/m 0,6 km/h (0 Bft) 0,00 h 0,00 h 1,4 km/h (1 Bft)
06.12.2010 03:00 10,0 C 0,8 C 0,0 UV-I 0,0 C 52 % 93 % 0 % 1003,2 hPa 0,0 l/m 0,2 km/h (0 Bft) 0,00 h 0,00 h 0,2 km/h (0 Bft)
06.12.2010 04:00 10,0 C 0,3 C 0,0 UV-I 0,0 C 52 % 93 % 0 % 1002,5 hPa 0,0 l/m 0,0 km/h (0 Bft) 0,00 h 0,00 h 0,0 km/h (0 Bft)
06.12.2010 05:00 10,0 C -0,0 C 0,0 UV-I 0,0 C 52 % 93 % 0 % 1002,1 hPa 0,0 l/m 0,0 km/h (0 Bft) 0,00 h 0,00 h 0,0 km/h (0 Bft)
06.12.2010 06:00 9,9 C -0,1 C 0,0 UV-I 0,0 C 52 % 94 % 0 % 1002,1 hPa 0,0 l/m 0,0 km/h (0 Bft) 0,00 h 0,00 h 0,0 km/h (0 Bft)
06.12.2010 07:00 9,9 C -0,1 C 0,0 UV-I 0,0 C 52 % 94 % 0 % 1002,0 hPa 0,0 l/m 0,0 km/h (0 Bft) 0,00 h 0,00 h 0,0 km/h (0 Bft)
06.12.2010 08:00 10,0 C -0,1 C 0,0 UV-I 0,0 C 52 % 94 % 0 % 1002,2 hPa 0,0 l/m 0,0 km/h (0 Bft) 0,00 h 0,00 h 0,0 km/h (0 Bft)
06.12.2010 09:00 10,2 C 0,0 C 0,0 UV-I 0,0 C 51 % 94 % 0 % 1002,3 hPa 0,0 l/m 0,0 km/h (0 Bft) 0,00 h 0,00 h 0,0 km/h (0 Bft)
06.12.2010 10:00 10,3 C 0,5 C 0,0 UV-I 0,0 C 51 % 94 % 0 % 1002,4 hPa 0,0 l/m 0,0 km/h (0 Bft) 0,00 h 0,00 h 0,0 km/h (0 Bft)
06.12.2010 11:00 10,6 C 1,2 C 0,0 UV-I 0,1 C 51 % 94 % 2 % 1002,8 hPa 0,0 l/m 0,0 km/h (0 Bft) 0,00 h 0,00 h 0,2 km/h (0 Bft)
06.12.2010 12:00 10,9 C 2,6 C 0,3 UV-I 2,5 C 51 % 93 % 71 % 1002,6 hPa 0,0 l/m 1,9 km/h (1 Bft) 0,63 h 0,00 h 3,2 km/h (1 Bft)
06.12.2010 13:00 11,3 C 3,5 C 1,0 UV-I 2,5 C 50 % 88 % 69 % 1002,5 hPa 0,0 l/m 1,7 km/h (1 Bft) 0,60 h 0,00 h 1,9 km/h (1 Bft)
06.12.2010 14:00 11,6 C 2,6 C 0,7 UV-I 0,0 C 49 % 87 % 0 % 1002,3 hPa 0,0 l/m 1,3 km/h (1 Bft) 0,00 h 0,00 h 1,5 km/h (1 Bft)
06.12.2010 15:00 11,4 C 1,6 C 0,1 UV-I 0,0 C 49 % 89 % 0 % 1002,1 hPa 0,0 l/m 2,0 km/h (1 Bft) 0,00 h 0,00 h 1,6 km/h (1 Bft)
06.12.2010 16:00 11,1 C 0,2 C 0,0 UV-I 0,0 C 49 % 90 % 0 % 1001,9 hPa 0,0 l/m 0,0 km/h (0 Bft) 0,00 h 0,00 h 0,0 km/h (0 Bft)
06.12.2010 17:00 10,8 C -0,9 C 0,0 UV-I 0,0 C 49 % 91 % 0 % 1001,8 hPa 0,0 l/m 0,0 km/h (0 Bft) 0,00 h 0,00 h 0,0 km/h (0 Bft)
06.12.2010 18:00 10,6 C -1,3 C 0,0 UV-I 0,0 C 49 % 92 % 0 % 1002,0 hPa 0,0 l/m 0,0 km/h (0 Bft) 0,00 h 0,00 h 0,0 km/h (0 Bft)
06.12.2010 19:00 10,5 C -1,3 C 0,0 UV-I 0,0 C 49 % 92 % 0 % 1002,2 hPa 0,0 l/m 0,0 km/h (0 Bft) 0,00 h 0,00 h 0,0 km/h (0 Bft)
06.12.2010 20:00 10,4 C -1,2 C 0,0 UV-I 0,0 C 49 % 93 % 0 % 1002,3 hPa 0,0 l/m 0,1 km/h (0 Bft) 0,00 h 0,00 h 0,1 km/h (0 Bft)
06.12.2010 21:00 10,4 C -1,1 C 0,0 UV-I 0,0 C 49 % 93 % 0 % 1002,3 hPa 0,0 l/m 0,5 km/h (0 Bft) 0,00 h 0,00 h 1,2 km/h (1 Bft)
06.12.2010 22:00 10,4 C -0,9 C 0,0 UV-I 0,0 C 50 % 93 % 0 % 1002,3 hPa 0,0 l/m 0,2 km/h (0 Bft) 0,00 h 0,00 h 0,5 km/h (0 Bft)
06.12.2010 23:00 10,4 C -1,0 C 0,0 UV-I 0,0 C 49 % 93 % 0 % 1002,3 hPa 0,0 l/m 0,4 km/h (0 Bft) 0,00 h 0,00 h 0,5 km/h (0 Bft)
07.12.2010 00:00 10,4 C -1,4 C 0,0 UV-I 0,0 C 49 % 93 % 0 % 1002,1 hPa 0,0 l/m 0,0 km/h (0 Bft) 0,00 h 0,00 h 0,0 km/h (0 Bft)
07.12.2010 01:00 10,4 C -1,3 C 0,0 UV-I 0,0 C 49 % 93 % 0 % 1002,0 hPa 0,0 l/m 0,0 km/h (0 Bft) 0,00 h 0,00 h 0,1 km/h (0 Bft)
07.12.2010 02:00 10,4 C -1,3 C 0,0 UV-I 0,0 C 49 % 93 % 0 % 1002,4 hPa 0,0 l/m 0,6 km/h (0 Bft) 0,00 h 0,00 h 1,7 km/h (1 Bft)
07.12.2010 03:00 10,3 C -1,6 C 0,0 UV-I 0,0 C 49 % 93 % 0 % 1002,9 hPa 0,0 l/m 4,6 km/h (1 Bft) 0,00 h 0,00 h 4,6 km/h (1 Bft)
07.12.2010 04:00 10,4 C -2,0 C 0,0 UV-I 0,0 C 49 % 93 % 0 % 1002,9 hPa 0,0 l/m 0,6 km/h (0 Bft) 0,00 h 0,00 h 0,7 km/h (0 Bft)
07.12.2010 05:00 10,3 C -2,3 C 0,0 UV-I 0,0 C 48 % 93 % 0 % 1003,2 hPa 0,0 l/m 3,6 km/h (1 Bft) 0,00 h 0,00 h 4,5 km/h (1 Bft)
07.12.2010 06:00 10,2 C -2,5 C 0,0 UV-I 0,0 C 48 % 93 % 0 % 1003,4 hPa 0,0 l/m 1,5 km/h (1 Bft) 0,00 h 0,00 h 1,4 km/h (1 Bft)
07.12.2010 07:00 10,2 C -2,9 C 0,0 UV-I 0,0 C 48 % 93 % 0 % 1003,8 hPa 0,0 l/m 4,2 km/h (1 Bft) 0,00 h 0,00 h 5,4 km/h (1 Bft)
07.12.2010 08:00 10,1 C -3,3 C 0,0 UV-I 0,0 C 48 % 93 % 0 % 1004,2 hPa 0,0 l/m 6,4 km/h (2 Bft) 0,00 h 0,00 h 6,9 km/h (2 Bft)
07.12.2010 09:00 10,1 C -3,1 C 0,0 UV-I 0,0 C 47 % 93 % 0 % 1004,9 hPa 0,0 l/m 4,6 km/h (1 Bft) 0,00 h 0,00 h 5,6 km/h (1 Bft)
07.12.2010 10:00 10,3 C -2,5 C 0,0 UV-I 0,3 C 47 % 93 % 8 % 1005,2 hPa 0,0 l/m 6,5 km/h (2 Bft) 0,00 h 0,00 h 6,6 km/h (2 Bft)
07.12.2010 11:00 10,5 C -1,8 C 0,0 UV-I 0,2 C 47 % 93 % 6 % 1005,4 hPa 0,0 l/m 6,7 km/h (2 Bft) 0,00 h 0,00 h 7,0 km/h (2 Bft)
07.12.2010 12:00 10,6 C -1,5 C 0,0 UV-I 0,0 C 47 % 92 % 0 % 1005,3 hPa 0,0 l/m 6,9 km/h (2 Bft) 0,00 h 0,33 h 7,3 km/h (2 Bft)
07.12.2010 13:00 10,7 C -0,9 C 0,0 UV-I 0,0 C 48 % 92 % 0 % 1005,0 hPa 0,0 l/m 3,0 km/h (1 Bft) 0,00 h 0,10 h 3,0 km/h (1 Bft)
07.12.2010 14:00 10,6 C -0,8 C 0,0 UV-I 0,0 C 48 % 92 % 0 % 1004,9 hPa 0,0 l/m 2,6 km/h (1 Bft) 0,00 h 0,00 h 3,7 km/h (1 Bft)
07.12.2010 15:00 10,6 C -0,6 C 0,0 UV-I 0,0 C 48 % 92 % 0 % 1004,8 hPa 0,0 l/m 1,5 km/h (1 Bft) 0,00 h 0,00 h 2,0 km/h (1 Bft)
07.12.2010 16:00 10,4 C -0,6 C 0,0 UV-I 0,0 C 48 % 92 % 0 % 1004,2 hPa 0,0 l/m 2,7 km/h (1 Bft) 0,00 h 0,00 h 3,7 km/h (1 Bft)
07.12.2010 17:00 10,2 C -0,7 C 0,0 UV-I 0,0 C 48 % 92 % 0 % 1004,2 hPa 0,0 l/m 0,9 km/h (0 Bft) 0,00 h 0,00 h 1,2 km/h (1 Bft)
07.12.2010 18:00 10,2 C -0,5 C 0,0 UV-I 0,0 C 48 % 92 % 0 % 1004,3 hPa 0,0 l/m 0,9 km/h (0 Bft) 0,00 h 0,00 h 1,2 km/h (1 Bft)
07.12.2010 19:00 10,1 C -0,3 C 0,0 UV-I 0,0 C 48 % 92 % 0 % 1004,7 hPa 0,0 l/m 0,6 km/h (0 Bft) 0,00 h 0,00 h 0,9 km/h (0 Bft)
07.12.2010 20:00 10,1 C -0,2 C 0,0 UV-I 0,0 C 48 % 92 % 0 % 1004,8 hPa 0,0 l/m 2,7 km/h (1 Bft) 0,00 h 0,00 h 3,4 km/h (1 Bft)
07.12.2010 21:00 10,1 C -0,1 C 0,0 UV-I 0,0 C 48 % 92 % 0 % 1005,2 hPa 0,0 l/m 4,3 km/h (1 Bft) 0,00 h 0,00 h 4,8 km/h (1 Bft)
07.12.2010 22:00 10,1 C -0,2 C 0,0 UV-I 0,0 C 48 % 92 % 0 % 1004,6 hPa 0,0 l/m 3,5 km/h (1 Bft) 0,00 h 0,00 h 3,6 km/h (1 Bft)
07.12.2010 23:00 10,1 C -0,5 C 0,0 UV-I 0,0 C 48 % 92 % 0 % 1005,0 hPa 0,0 l/m 3,9 km/h (1 Bft) 0,00 h 0,00 h 4,7 km/h (1 Bft)
08.12.2010 00:00 10,1 C -0,7 C 0,0 UV-I 0,0 C 48 % 92 % 0 % 1005,2 hPa 0,0 l/m 4,7 km/h (1 Bft) 0,00 h 0,00 h 4,3 km/h (1 Bft)
08.12.2010 01:00 10,1 C -0,6 C 0,0 UV-I 0,0 C 48 % 92 % 0 % 1005,1 hPa 0,0 l/m 2,6 km/h (1 Bft) 0,00 h 0,00 h 3,4 km/h (1 Bft)
08.12.2010 02:00 10,1 C -0,5 C 0,0 UV-I 0,0 C 48 % 92 % 0 % 1005,3 hPa 0,0 l/m 4,5 km/h (1 Bft) 0,00 h 0,00 h 4,1 km/h (1 Bft)
08.12.2010 03:00 10,1 C -0,3 C 0,0 UV-I 0,0 C 48 % 92 % 0 % 1005,1 hPa 0,0 l/m 1,9 km/h (1 Bft) 0,00 h 0,00 h 2,3 km/h (1 Bft)
08.12.2010 04:00 10,2 C -0,3 C 0,0 UV-I 0,0 C 48 % 92 % 0 % 1004,7 hPa 0,0 l/m 2,2 km/h (1 Bft) 0,00 h 0,00 h 2,9 km/h (1 Bft)
08.12.2010 05:00 10,2 C -0,2 C 0,0 UV-I 0,0 C 48 % 92 % 0 % 1004,7 hPa 0,0 l/m 3,3 km/h (1 Bft) 0,00 h 0,00 h 4,3 km/h (1 Bft)
08.12.2010 06:00 10,2 C -0,3 C 0,0 UV-I 0,0 C 48 % 92 % 0 % 1004,7 hPa 0,0 l/m 6,1 km/h (2 Bft) 0,00 h 0,00 h 6,3 km/h (2 Bft)
08.12.2010 07:00 10,1 C -0,5 C 0,0 UV-I 0,0 C 49 % 93 % 0 % 1004,5 hPa 0,0 l/m 3,5 km/h (1 Bft) 0,00 h 0,00 h 3,7 km/h (1 Bft)
08.12.2010 08:00 10,3 C -0,5 C 0,0 UV-I 0,0 C 49 % 93 % 0 % 1004,8 hPa 0,0 l/m 5,4 km/h (1 Bft) 0,00 h 0,00 h 6,2 km/h (2 Bft)
08.12.2010 09:00 10,4 C -0,5 C 0,0 UV-I 0,0 C 49 % 94 % 0 % 1005,6 hPa 0,0 l/m 7,4 km/h (2 Bft) 0,00 h 0,03 h 7,4 km/h (2 Bft)
08.12.2010 10:00 10,6 C -0,5 C 0,0 UV-I 0,0 C 49 % 94 % 0 % 1005,8 hPa 0,0 l/m 7,3 km/h (2 Bft) 0,00 h 0,93 h 7,8 km/h (2 Bft)
08.12.2010 11:00 10,7 C -0,4 C 0,0 UV-I 0,0 C 49 % 94 % 0 % 1005,9 hPa 0,0 l/m 9,9 km/h (2 Bft) 0,00 h 0,30 h 10,9 km/h (2 Bft)
08.12.2010 12:00 10,8 C -0,2 C 0,0 UV-I 0,0 C 49 % 94 % 0 % 1006,2 hPa 0,0 l/m 8,8 km/h (2 Bft) 0,00 h 0,13 h 8,6 km/h (2 Bft)
08.12.2010 13:00 10,8 C -0,1 C 0,0 UV-I 0,0 C 48 % 94 % 0 % 1006,4 hPa 0,0 l/m 8,2 km/h (2 Bft) 0,00 h 0,00 h 8,2 km/h (2 Bft)
08.12.2010 14:00 10,8 C -0,2 C 0,0 UV-I 0,0 C 48 % 93 % 0 % 1006,2 hPa 0,0 l/m 9,5 km/h (2 Bft) 0,00 h 0,00 h 9,4 km/h (2 Bft)
08.12.2010 15:00 10,8 C -0,3 C 0,0 UV-I 0,0 C 48 % 93 % 0 % 1006,7 hPa 0,0 l/m 10,4 km/h (2 Bft) 0,00 h 0,00 h 10,2 km/h (2 Bft)
08.12.2010 16:00 10,4 C -0,4 C 0,0 UV-I 0,0 C 48 % 93 % 0 % 1007,7 hPa 0,0 l/m 11,7 km/h (2 Bft) 0,00 h 0,00 h 13,3 km/h (3 Bft)
08.12.2010 17:00 10,3 C -0,6 C 0,0 UV-I 0,0 C 48 % 93 % 0 % 1007,7 hPa 0,0 l/m 13,6 km/h (3 Bft) 0,00 h 0,00 h 15,3 km/h (3 Bft)
08.12.2010 18:00 10,2 C -0,7 C 0,0 UV-I 0,0 C 48 % 92 % 0 % 1007,9 hPa 0,0 l/m 13,8 km/h (3 Bft) 0,00 h 0,00 h 13,7 km/h (3 Bft)
08.12.2010 19:00 10,2 C -0,7 C 0,0 UV-I 0,0 C 48 % 92 % 0 % 1008,7 hPa 0,0 l/m 11,0 km/h (2 Bft) 0,00 h 0,00 h 11,6 km/h (2 Bft)
08.12.2010 20:00 10,2 C -0,6 C 0,0 UV-I 0,0 C 48 % 92 % 0 % 1010,4 hPa 0,0 l/m 10,0 km/h (2 Bft) 0,00 h 0,00 h 10,3 km/h (2 Bft)
08.12.2010 21:00 10,2 C -0,8 C 0,0 UV-I 0,0 C 48 % 92 % 0 % 1011,8 hPa 0,0 l/m 5,1 km/h (1 Bft) 0,00 h 0,00 h 5,0 km/h (1 Bft)
08.12.2010 22:00 10,2 C -1,1 C 0,0 UV-I 0,0 C 48 % 92 % 0 % 1012,9 hPa 0,0 l/m 1,9 km/h (1 Bft) 0,00 h 0,00 h 2,8 km/h (1 Bft)
08.12.2010 23:00 10,2 C -1,9 C 0,0 UV-I 0,0 C 47 % 92 % 0 % 1014,1 hPa 0,0 l/m 1,1 km/h (0 Bft) 0,00 h 0,00 h 1,3 km/h (1 Bft)
09.12.2010 00:00 10,1 C -2,0 C 0,0 UV-I 0,0 C 47 % 93 % 0 % 1015,1 hPa 0,0 l/m 1,8 km/h (1 Bft) 0,00 h 0,00 h 3,1 km/h (1 Bft)
09.12.2010 01:00 9,9 C -1,7 C 0,0 UV-I 0,0 C 47 % 93 % 0 % 1015,9 hPa 0,0 l/m 3,9 km/h (1 Bft) 0,00 h 0,00 h 5,3 km/h (1 Bft)
09.12.2010 02:00 10,0 C -1,5 C 0,0 UV-I 0,0 C 47 % 93 % 0 % 1016,3 hPa 0,0 l/m 5,1 km/h (1 Bft) 0,00 h 0,00 h 7,4 km/h (2 Bft)
09.12.2010 03:00 9,9 C -1,3 C 0,0 UV-I 0,0 C 47 % 93 % 0 % 1016,9 hPa 0,0 l/m 4,3 km/h (1 Bft) 0,00 h 0,00 h 4,9 km/h (1 Bft)
09.12.2010 04:00 10,0 C -0,8 C 0,0 UV-I 0,0 C 48 % 93 % 0 % 1017,5 hPa 0,0 l/m 4,9 km/h (1 Bft) 0,00 h 0,00 h 7,0 km/h (2 Bft)
09.12.2010 05:00 10,0 C -0,7 C 0,0 UV-I 0,0 C 48 % 94 % 0 % 1018,3 hPa 0,0 l/m 4,0 km/h (1 Bft) 0,00 h 0,00 h 4,6 km/h (1 Bft)
09.12.2010 06:00 10,0 C -0,4 C 0,0 UV-I 0,0 C 48 % 94 % 0 % 1019,0 hPa 0,0 l/m 5,0 km/h (1 Bft) 0,00 h 0,00 h 5,4 km/h (1 Bft)
09.12.2010 07:00 10,0 C 0,3 C 0,0 UV-I 0,0 C 49 % 94 % 0 % 1019,6 hPa 0,0 l/m 5,7 km/h (1 Bft) 0,00 h 0,00 h 6,1 km/h (2 Bft)
09.12.2010 08:00 10,0 C 0,6 C 0,0 UV-I 0,0 C 49 % 93 % 0 % 1020,3 hPa 0,0 l/m 7,1 km/h (2 Bft) 0,00 h 0,30 h 9,0 km/h (2 Bft)
09.12.2010 09:00 10,0 C 1,1 C 0,0 UV-I 0,0 C 50 % 93 % 0 % 1021,3 hPa 0,0 l/m 9,1 km/h (2 Bft) 0,00 h 0,00 h 11,0 km/h (2 Bft)
09.12.2010 10:00 10,2 C 1,4 C 0,0 UV-I 0,0 C 50 % 93 % 0 % 1021,9 hPa 0,0 l/m 9,2 km/h (2 Bft) 0,00 h 0,77 h 9,9 km/h (2 Bft)
09.12.2010 11:00 10,4 C 1,5 C 0,0 UV-I 0,0 C 51 % 94 % 1 % 1022,8 hPa 0,1 l/m 9,2 km/h (2 Bft) 0,00 h 1,00 h 12,4 km/h (3 Bft)
09.12.2010 12:00 10,6 C 2,0 C 0,0 UV-I 0,2 C 50 % 92 % 6 % 1023,0 hPa 0,0 l/m 9,7 km/h (2 Bft) 0,00 h 0,20 h 9,4 km/h (2 Bft)
09.12.2010 13:00 10,8 C 2,6 C 0,1 UV-I 1,4 C 50 % 90 % 37 % 1023,6 hPa 0,0 l/m 8,5 km/h (2 Bft) 0,33 h 0,00 h 9,0 km/h (2 Bft)
09.12.2010 14:00 11,0 C 2,5 C 0,6 UV-I 1,0 C 49 % 89 % 29 % 1023,9 hPa 0,0 l/m 8,5 km/h (2 Bft) 0,30 h 0,00 h 8,2 km/h (2 Bft)
09.12.2010 15:00 11,2 C 2,4 C 0,6 UV-I 0,0 C 48 % 88 % 0 % 1024,4 hPa 0,0 l/m 7,2 km/h (2 Bft) 0,00 h 0,00 h 7,9 km/h (2 Bft)
09.12.2010 16:00 10,9 C 2,1 C 0,4 UV-I 0,0 C 49 % 89 % 0 % 1023,9 hPa 0,0 l/m 7,0 km/h (2 Bft) 0,00 h 0,00 h 8,3 km/h (2 Bft)
09.12.2010 17:00 10,6 C 2,3 C 0,0 UV-I 0,0 C 50 % 90 % 0 % 1024,0 hPa 0,0 l/m 7,2 km/h (2 Bft) 0,00 h 0,00 h 8,8 km/h (2 Bft)
09.12.2010 18:00 10,4 C 3,0 C 0,0 UV-I 0,0 C 51 % 89 % 0 % 1024,9 hPa 0,0 l/m 11,6 km/h (2 Bft) 0,00 h 0,00 h 14,1 km/h (3 Bft)
09.12.2010 19:00 10,4 C 3,2 C 0,0 UV-I 0,0 C 52 % 90 % 0 % 1025,4 hPa 0,0 l/m 12,4 km/h (3 Bft) 0,00 h 0,00 h 15,0 km/h (3 Bft)
09.12.2010 20:00 10,5 C 3,2 C 0,0 UV-I 0,0 C 52 % 90 % 0 % 1025,8 hPa 0,0 l/m 11,8 km/h (2 Bft) 0,00 h 0,00 h 13,4 km/h (3 Bft)
09.12.2010 21:00 10,4 C 3,2 C 0,0 UV-I 0,0 C 53 % 90 % 0 % 1026,0 hPa 0,0 l/m 11,0 km/h (2 Bft) 0,00 h 0,83 h 11,4 km/h (2 Bft)
09.12.2010 22:00 10,4 C 3,2 C 0,0 UV-I 0,0 C 53 % 90 % 0 % 1025,6 hPa 0,0 l/m 10,0 km/h (2 Bft) 0,00 h 0,03 h 10,7 km/h (2 Bft)
09.12.2010 23:00 10,6 C 3,5 C 0,0 UV-I 0,0 C 53 % 88 % 0 % 1025,5 hPa 0,0 l/m 11,9 km/h (2 Bft) 0,00 h 0,00 h 13,7 km/h (3 Bft)
10.12.2010 00:00 10,6 C 3,6 C 0,0 UV-I 0,0 C 53 % 88 % 0 % 1025,3 hPa 0,2 l/m 12,4 km/h (3 Bft) 0,00 h 0,77 h 15,6 km/h (3 Bft)
10.12.2010 01:00 10,6 C 3,5 C 0,0 UV-I 0,0 C 54 % 91 % 0 % 1025,2 hPa 0,7 l/m 10,1 km/h (2 Bft) 0,00 h 0,97 h 10,8 km/h (2 Bft)
10.12.2010 02:00 10,7 C 3,5 C 0,0 UV-I 0,0 C 55 % 93 % 0 % 1025,2 hPa 0,2 l/m 6,2 km/h (2 Bft) 0,00 h 0,80 h 6,3 km/h (2 Bft)
10.12.2010 03:00 10,8 C 3,4 C 0,0 UV-I 0,0 C 55 % 93 % 0 % 1025,2 hPa 0,0 l/m 1,9 km/h (1 Bft) 0,00 h 0,03 h 2,2 km/h (1 Bft)
10.12.2010 04:00 10,8 C 2,9 C 0,0 UV-I 0,0 C 55 % 93 % 0 % 1027,4 hPa 0,0 l/m 0,4 km/h (0 Bft) 0,00 h 0,00 h 0,4 km/h (0 Bft)
10.12.2010 05:00 11,0 C 2,5 C 0,0 UV-I 0,0 C 55 % 93 % 0 % 1028,4 hPa 0,0 l/m 0,1 km/h (0 Bft) 0,00 h 0,03 h 0,0 km/h (0 Bft)
10.12.2010 06:00 11,0 C 1,6 C 0,0 UV-I 0,0 C 55 % 93 % 0 % 1029,0 hPa 0,0 l/m 0,0 km/h (0 Bft) 0,00 h 0,03 h 0,0 km/h (0 Bft)
10.12.2010 07:00 10,8 C 0,6 C 0,0 UV-I 0,0 C 53 % 93 % 0 % 1029,0 hPa 0,0 l/m 0,0 km/h (0 Bft) 0,00 h 0,00 h 0,0 km/h (0 Bft)
10.12.2010 08:00 10,8 C 1,0 C 0,0 UV-I 0,0 C 53 % 94 % 0 % 1030,3 hPa 0,0 l/m 0,1 km/h (0 Bft) 0,00 h 0,10 h 0,4 km/h (0 Bft)
10.12.2010 09:00 11,0 C 1,3 C 0,0 UV-I 0,0 C 54 % 94 % 0 % 1030,5 hPa 0,0 l/m 0,4 km/h (0 Bft) 0,00 h 0,00 h 0,6 km/h (0 Bft)
10.12.2010 10:00 11,2 C 2,0 C 0,0 UV-I 0,3 C 54 % 94 % 9 % 1030,5 hPa 0,0 l/m 0,6 km/h (0 Bft) 0,00 h 0,00 h 0,9 km/h (0 Bft)
10.12.2010 11:00 11,3 C 2,7 C 0,0 UV-I 0,5 C 54 % 95 % 13 % 1030,5 hPa 0,0 l/m 2,6 km/h (1 Bft) 0,00 h 0,00 h 4,0 km/h (1 Bft)
10.12.2010 12:00 11,6 C 3,3 C 0,0 UV-I 0,9 C 54 % 94 % 27 % 1030,9 hPa 0,1 l/m 2,4 km/h (1 Bft) 0,00 h 0,13 h 3,1 km/h (1 Bft)
10.12.2010 13:00 11,6 C 3,5 C 0,0 UV-I 0,0 C 54 % 94 % 1 % 1030,9 hPa 0,0 l/m 0,4 km/h (0 Bft) 0,00 h 0,13 h 0,4 km/h (0 Bft)
10.12.2010 14:00 11,6 C 3,9 C 0,0 UV-I 0,0 C 55 % 94 % 0 % 1030,7 hPa 0,1 l/m 1,2 km/h (1 Bft) 0,00 h 0,80 h 1,6 km/h (1 Bft)
10.12.2010 15:00 11,6 C 4,3 C 0,0 UV-I 0,0 C 56 % 94 % 0 % 1030,0 hPa 0,1 l/m 1,9 km/h (1 Bft) 0,00 h 0,47 h 3,4 km/h (1 Bft)
10.12.2010 16:00 11,4 C 4,6 C 0,0 UV-I 0,0 C 57 % 95 % 0 % 1029,4 hPa 0,0 l/m 5,1 km/h (1 Bft) 0,00 h 0,07 h 6,2 km/h (2 Bft)
10.12.2010 17:00 11,4 C 4,7 C 0,0 UV-I 0,0 C 58 % 95 % 0 % 1029,4 hPa 0,0 l/m 6,3 km/h (2 Bft) 0,00 h 0,20 h 8,7 km/h (2 Bft)
10.12.2010 18:00 11,4 C 4,4 C 0,0 UV-I 0,0 C 58 % 94 % 0 % 1028,6 hPa 0,1 l/m 5,2 km/h (1 Bft) 0,00 h 0,23 h 6,2 km/h (2 Bft)
10.12.2010 19:00 11,3 C 4,4 C 0,0 UV-I 0,0 C 58 % 95 % 0 % 1028,0 hPa 0,0 l/m 7,7 km/h (2 Bft) 0,00 h 0,13 h 9,4 km/h (2 Bft)
10.12.2010 20:00 11,2 C 4,7 C 0,0 UV-I 0,0 C 58 % 94 % 0 % 1027,3 hPa 0,1 l/m 9,7 km/h (2 Bft) 0,00 h 0,47 h 10,1 km/h (2 Bft)
10.12.2010 21:00 11,1 C 4,8 C 0,0 UV-I 0,0 C 59 % 95 % 0 % 1026,7 hPa 0,1 l/m 9,1 km/h (2 Bft) 0,00 h 0,47 h 10,4 km/h (2 Bft)
10.12.2010 22:00 11,1 C 5,0 C 0,0 UV-I 0,0 C 59 % 95 % 0 % 1025,8 hPa 0,0 l/m 11,5 km/h (2 Bft) 0,00 h 0,33 h 12,3 km/h (3 Bft)
10.12.2010 23:00 11,2 C 4,9 C 0,0 UV-I 0,0 C 59 % 94 % 0 % 1024,8 hPa 0,3 l/m 10,0 km/h (2 Bft) 0,00 h 0,90 h 11,8 km/h (2 Bft)
11.12.2010 00:00 11,2 C 5,1 C 0,0 UV-I 0,0 C 60 % 95 % 0 % 1023,9 hPa 0,1 l/m 11,4 km/h (2 Bft) 0,00 h 0,63 h 13,1 km/h (3 Bft)
11.12.2010 01:00 11,2 C 5,2 C 0,0 UV-I 0,0 C 60 % 95 % 0 % 1023,5 hPa 0,0 l/m 11,8 km/h (2 Bft) 0,00 h 0,37 h 14,6 km/h (3 Bft)
11.12.2010 02:00 11,3 C 5,3 C 0,0 UV-I 0,0 C 61 % 95 % 0 % 1022,9 hPa 0,1 l/m 11,1 km/h (2 Bft) 0,00 h 1,00 h 11,7 km/h (2 Bft)
11.12.2010 03:00 11,4 C 5,5 C 0,0 UV-I 0,0 C 61 % 95 % 0 % 1022,5 hPa 0,1 l/m 10,5 km/h (2 Bft) 0,00 h 0,43 h 10,9 km/h (2 Bft)
11.12.2010 04:00 11,5 C 5,6 C 0,0 UV-I 0,0 C 62 % 95 % 0 % 1022,6 hPa 0,1 l/m 9,5 km/h (2 Bft) 0,00 h 0,50 h 10,6 km/h (2 Bft)
11.12.2010 05:00 11,6 C 5,9 C 0,0 UV-I 0,0 C 62 % 95 % 0 % 1022,7 hPa 0,0 l/m 10,2 km/h (2 Bft) 0,00 h 0,23 h 10,9 km/h (2 Bft)
11.12.2010 06:00 11,6 C 6,0 C 0,0 UV-I 0,0 C 62 % 95 % 0 % 1022,1 hPa 0,0 l/m 7,9 km/h (2 Bft) 0,00 h 0,00 h 10,0 km/h (2 Bft)
11.12.2010 07:00 11,8 C 6,0 C 0,0 UV-I 0,0 C 61 % 94 % 0 % 1021,8 hPa 0,0 l/m 9,2 km/h (2 Bft) 0,00 h 0,40 h 10,2 km/h (2 Bft)
11.12.2010 08:00 11,8 C 5,9 C 0,0 UV-I 0,0 C 62 % 95 % 0 % 1022,2 hPa 0,2 l/m 8,5 km/h (2 Bft) 0,00 h 1,00 h 9,7 km/h (2 Bft)
11.12.2010 09:00 11,7 C 6,0 C 0,0 UV-I 0,0 C 63 % 95 % 0 % 1022,5 hPa 0,1 l/m 9,5 km/h (2 Bft) 0,00 h 0,60 h 10,1 km/h (2 Bft)
11.12.2010 10:00 11,6 C 6,4 C 0,0 UV-I 0,0 C 64 % 95 % 0 % 1022,2 hPa 0,0 l/m 8,3 km/h (2 Bft) 0,00 h 0,03 h 8,5 km/h (2 Bft)
11.12.2010 11:00 11,9 C 6,9 C 0,0 UV-I 0,0 C 63 % 94 % 0 % 1022,2 hPa 0,0 l/m 9,6 km/h (2 Bft) 0,00 h 0,10 h 10,4 km/h (2 Bft)
11.12.2010 12:00 12,0 C 7,1 C 0,0 UV-I 0,0 C 63 % 93 % 0 % 1022,2 hPa 0,0 l/m 10,5 km/h (2 Bft) 0,00 h 0,40 h 11,7 km/h (2 Bft)
11.12.2010 13:00 12,1 C 7,0 C 0,0 UV-I 0,0 C 63 % 93 % 0 % 1021,9 hPa 0,2 l/m 7,8 km/h (2 Bft) 0,00 h 0,93 h 8,7 km/h (2 Bft)
11.12.2010 14:00 12,3 C 6,9 C 0,0 UV-I 0,0 C 62 % 93 % 0 % 1022,0 hPa 0,0 l/m 7,3 km/h (2 Bft) 0,00 h 0,23 h 9,2 km/h (2 Bft)
11.12.2010 15:00 12,3 C 7,1 C 0,0 UV-I 0,0 C 62 % 93 % 0 % 1021,8 hPa 0,0 l/m 6,7 km/h (2 Bft) 0,00 h 0,23 h 7,1 km/h (2 Bft)
11.12.2010 16:00 12,2 C 6,8 C 0,0 UV-I 0,0 C 62 % 92 % 0 % 1021,6 hPa 0,0 l/m 7,4 km/h (2 Bft) 0,00 h 0,77 h 7,5 km/h (2 Bft)
11.12.2010 17:00 11,9 C 6,8 C 0,0 UV-I 0,0 C 62 % 91 % 0 % 1021,1 hPa 0,1 l/m 8,1 km/h (2 Bft) 0,00 h 0,33 h 8,4 km/h (2 Bft)
11.12.2010 18:00 11,9 C 6,7 C 0,0 UV-I 0,0 C 62 % 91 % 0 % 1020,6 hPa 0,0 l/m 8,3 km/h (2 Bft) 0,00 h 0,10 h 9,7 km/h (2 Bft)
11.12.2010 19:00 11,9 C 6,7 C 0,0 UV-I 0,0 C 62 % 91 % 0 % 1020,2 hPa 0,0 l/m 8,8 km/h (2 Bft) 0,00 h 0,30 h 9,4 km/h (2 Bft)
11.12.2010 20:00 12,0 C 6,6 C 0,0 UV-I 0,0 C 62 % 91 % 0 % 1019,6 hPa 0,0 l/m 8,4 km/h (2 Bft) 0,00 h 0,23 h 8,8 km/h (2 Bft)
11.12.2010 21:00 11,9 C 6,5 C 0,0 UV-I 0,0 C 62 % 92 % 0 % 1018,9 hPa 0,0 l/m 9,9 km/h (2 Bft) 0,00 h 0,53 h 12,2 km/h (2 Bft)
11.12.2010 22:00 11,9 C 6,6 C 0,0 UV-I 0,0 C 62 % 90 % 0 % 1018,4 hPa 0,0 l/m 9,8 km/h (2 Bft) 0,00 h 0,13 h 11,4 km/h (2 Bft)
11.12.2010 23:00 11,9 C 6,5 C 0,0 UV-I 0,0 C 61 % 89 % 0 % 1017,8 hPa 0,0 l/m 10,7 km/h (2 Bft) 0,00 h 0,20 h 11,4 km/h (2 Bft)
12.12.2010 00:00 11,9 C 6,3 C 0,0 UV-I 0,0 C 60 % 89 % 0 % 1017,1 hPa 0,0 l/m 10,9 km/h (2 Bft) 0,00 h 0,17 h 13,2 km/h (3 Bft)
12.12.2010 01:00 12,0 C 6,2 C 0,0 UV-I 0,0 C 60 % 89 % 0 % 1016,7 hPa 0,1 l/m 10,9 km/h (2 Bft) 0,00 h 0,53 h 12,8 km/h (3 Bft)
12.12.2010 02:00 11,9 C 6,0 C 0,0 UV-I 0,0 C 60 % 89 % 0 % 1016,7 hPa 0,0 l/m 9,3 km/h (2 Bft) 0,00 h 0,53 h 9,5 km/h (2 Bft)
12.12.2010 03:00 11,9 C 5,9 C 0,0 UV-I 0,0 C 60 % 89 % 0 % 1016,5 hPa 0,0 l/m 7,1 km/h (2 Bft) 0,00 h 0,20 h 9,1 km/h (2 Bft)
12.12.2010 04:00 12,0 C 5,5 C 0,0 UV-I 0,0 C 59 % 89 % 0 % 1016,4 hPa 0,0 l/m 4,9 km/h (1 Bft) 0,00 h 0,10 h 5,6 km/h (1 Bft)
12.12.2010 05:00 12,0 C 4,8 C 0,0 UV-I 0,0 C 59 % 88 % 0 % 1016,5 hPa 0,0 l/m 4,1 km/h (1 Bft) 0,00 h 0,10 h 6,1 km/h (2 Bft)
12.12.2010 06:00 12,0 C 4,4 C 0,0 UV-I 0,0 C 58 % 88 % 0 % 1016,8 hPa 0,0 l/m 4,5 km/h (1 Bft) 0,00 h 0,07 h 5,7 km/h (1 Bft)
12.12.2010 07:00 12,0 C 4,3 C 0,0 UV-I 0,0 C 57 % 88 % 0 % 1016,8 hPa 0,0 l/m 4,5 km/h (1 Bft) 0,00 h 0,27 h 5,9 km/h (2 Bft)
12.12.2010 08:00 11,9 C 4,4 C 0,0 UV-I 0,0 C 57 % 89 % 0 % 1016,8 hPa 0,0 l/m 5,7 km/h (1 Bft) 0,00 h 0,37 h 6,9 km/h (2 Bft)
12.12.2010 09:00 12,0 C 4,8 C 0,0 UV-I 0,0 C 58 % 90 % 0 % 1017,0 hPa 0,0 l/m 6,5 km/h (2 Bft) 0,00 h 0,40 h 7,8 km/h (2 Bft)
12.12.2010 10:00 12,0 C 5,3 C 0,0 UV-I 0,0 C 58 % 90 % 0 % 1017,4 hPa 0,1 l/m 8,5 km/h (2 Bft) 0,00 h 0,23 h 9,2 km/h (2 Bft)
12.12.2010 11:00 12,2 C 5,6 C 0,0 UV-I 0,0 C 58 % 89 % 1 % 1017,8 hPa 0,0 l/m 7,4 km/h (2 Bft) 0,00 h 0,03 h 10,8 km/h (2 Bft)
12.12.2010 12:00 12,4 C 6,0 C 0,0 UV-I 0,0 C 58 % 88 % 0 % 1018,2 hPa 0,0 l/m 9,5 km/h (2 Bft) 0,00 h 0,03 h 12,4 km/h (3 Bft)
12.12.2010 13:00 12,4 C 6,0 C 0,0 UV-I 0,0 C 58 % 87 % 0 % 1018,3 hPa 0,0 l/m 13,1 km/h (3 Bft) 0,00 h 0,27 h 13,9 km/h (3 Bft)
12.12.2010 14:00 12,5 C 5,4 C 0,0 UV-I 0,0 C 57 % 85 % 0 % 1018,5 hPa 0,0 l/m 16,8 km/h (3 Bft) 0,00 h 0,23 h 17,9 km/h (3 Bft)
12.12.2010 15:00 12,3 C 3,9 C 0,0 UV-I 0,0 C 54 % 80 % 0 % 1019,4 hPa 0,0 l/m 21,2 km/h (4 Bft) 0,00 h 0,07 h 21,0 km/h (4 Bft)
12.12.2010 16:00 11,9 C 3,0 C 0,0 UV-I 0,0 C 52 % 80 % 0 % 1019,9 hPa 0,0 l/m 17,5 km/h (3 Bft) 0,00 h 0,10 h 17,6 km/h (3 Bft)
12.12.2010 17:00 11,6 C 2,2 C 0,0 UV-I 0,0 C 50 % 77 % 0 % 1021,0 hPa 0,0 l/m 13,6 km/h (3 Bft) 0,00 h 0,03 h 14,2 km/h (3 Bft)
12.12.2010 18:00 11,4 C 1,5 C 0,0 UV-I 0,0 C 49 % 76 % 0 % 1021,6 hPa 0,0 l/m 18,4 km/h (3 Bft) 0,00 h 0,03 h 18,5 km/h (3 Bft)
12.12.2010 19:00 11,1 C 0,5 C 0,0 UV-I 0,0 C 48 % 74 % 0 % 1022,0 hPa 0,0 l/m 18,7 km/h (3 Bft) 0,00 h 0,07 h 17,3 km/h (3 Bft)
12.12.2010 20:00 10,8 C -0,1 C 0,0 UV-I 0,0 C 47 % 73 % 0 % 1022,2 hPa 0,0 l/m 17,7 km/h (3 Bft) 0,00 h 0,03 h 16,4 km/h (3 Bft)
12.12.2010 21:00 10,7 C -0,1 C 0,0 UV-I 0,0 C 46 % 72 % 0 % 1023,0 hPa 0,0 l/m 12,6 km/h (3 Bft) 0,00 h 0,00 h 12,8 km/h (3 Bft)
12.12.2010 22:00 10,6 C -0,3 C 0,0 UV-I 0,0 C 46 % 72 % 0 % 1023,4 hPa 0,0 l/m 11,5 km/h (2 Bft) 0,00 h 0,00 h 11,6 km/h (2 Bft)
12.12.2010 23:00 10,6 C -0,4 C 0,0 UV-I 0,0 C 45 % 74 % 0 % 1023,9 hPa 0,0 l/m 9,3 km/h (2 Bft) 0,00 h 0,00 h 9,0 km/h (2 Bft)
Min-Datum _ 06.12.10 07.12.10 06.12.10 06.12.10 12.12.10 12.12.10 06.12.10 06.12.10 - 06.12.10 - - 06.12.10
_ Min-Zeit 00:00 08:52 00:00 00:00 22:34 20:16 00:00 17:46 - 00:02 - - 00:00
Minimum _ 9,8 C -3,4 C 0,0 UV-I 0,0 C 45 % 72 % 0 % 1001,7 hPa - 0,0 km/h (0 Bft) - - 0,0 km/h (0 Bft)
Max-Datum _ 12.12.10 11.12.10 06.12.10 09.12.10 11.12.10 10.12.10 06.12.10 10.12.10 10.12.10 12.12.10 06.12.10 07.12.10 09.12.10
_ Max-Zeit 14:12 12:50 12:48 13:24 10:12 10:54 12:38 12:26 01:22 14:42 12:22 12:40 23:38
Maximum _ 12,6 C 7,2 C 1,3 UV-I 4,5 C 64 % 95 % 100 % 1031,1 hPa 0,7 l/m 27,7 km/h
S (4 Bft)
0,03 h 0,03 h 41,5 km/h
SO (6 Bft)
Durchschnitt _ 10,9 C 1,9 C 0,0 UV-I 0,1 C 53 % 91 % 2 % 1014,9 hPa #3,2 l/m 6,1 km/h (2 Bft) #1:52 h #25:42 h 6,8 km/h (2 Bft)
© 2012 W. Hausmann